createdAt,value
2023-01-21T00:00:45.627Z,50.97
2023-01-21T00:03:12.933Z,52.38
2023-01-21T00:05:39.814Z,48.85
2023-01-21T00:08:06.431Z,45.80
2023-01-21T00:10:33.611Z,44.05
2023-01-21T00:13:00.425Z,49.00
2023-01-21T00:15:27.305Z,50.65
2023-01-21T00:17:54.557Z,45.25
2023-01-21T00:20:21.601Z,44.53
2023-01-21T00:22:48.470Z,46.78
2023-01-21T00:25:15.143Z,42.30
2023-01-21T00:27:41.732Z,45.60
2023-01-21T00:30:10.570Z,43.65
2023-01-21T00:32:37.594Z,44.80
2023-01-21T00:35:05.890Z,46.58
2023-01-21T00:37:32.693Z,45.63
2023-01-21T00:39:59.273Z,47.17
2023-01-21T00:42:27.799Z,45.38
2023-01-21T00:44:55.005Z,42.17
2023-01-21T00:47:21.567Z,47.83
2023-01-21T00:49:48.152Z,44.72
2023-01-21T00:52:14.819Z,44.35
2023-01-21T00:54:42.239Z,46.72
2023-01-21T00:57:08.876Z,43.88
2023-01-21T00:59:35.572Z,46.88
2023-01-21T01:02:02.219Z,44.38
2023-01-21T01:04:28.821Z,42.88
2023-01-21T01:06:55.403Z,44.47
2023-01-21T01:09:21.971Z,43.30
2023-01-21T01:11:48.648Z,41.38
2023-01-21T01:14:15.233Z,42.58
2023-01-21T01:16:41.799Z,40.20
2023-01-21T01:19:09.034Z,44.15
2023-01-21T01:21:35.676Z,40.85
2023-01-21T01:24:03.148Z,39.63
2023-01-21T01:26:29.804Z,46.70
2023-01-21T01:28:56.420Z,40.97
2023-01-21T01:31:23.296Z,40.35
2023-01-21T01:33:50.019Z,46.13
2023-01-21T01:36:19.775Z,40.90
2023-01-21T01:38:46.477Z,43.08
2023-01-21T01:41:18.409Z,43.53
2023-01-21T01:43:55.861Z,43.95
2023-01-21T01:46:23.667Z,38.03
2023-01-21T01:49:00.337Z,42.05
2023-01-21T01:51:33.075Z,40.78
2023-01-21T01:54:00.298Z,40.93
2023-01-21T01:56:28.825Z,40.05
2023-01-21T01:58:55.703Z,48.35
2023-01-21T02:01:22.486Z,43.13
2023-01-21T02:03:56.795Z,44.42
2023-01-21T02:06:23.494Z,43.20
2023-01-21T02:08:51.151Z,47.90
2023-01-21T02:11:19.899Z,46.22
2023-01-21T02:13:57.495Z,45.75
2023-01-21T02:16:42.415Z,41.80
2023-01-21T02:19:39.553Z,44.95
2023-01-21T02:22:34.732Z,39.33
2023-01-21T02:25:32.613Z,43.55
2023-01-21T02:28:18.080Z,43.80
2023-01-21T02:31:06.594Z,47.88
2023-01-21T02:33:48.759Z,50.30
2023-01-21T02:36:30.331Z,47.53
2023-01-21T02:39:11.932Z,46.30
2023-01-21T02:42:02.689Z,43.20
2023-01-21T02:45:16.527Z,49.10
2023-01-21T02:48:11.909Z,46.67
2023-01-21T02:50:45.555Z,43.25
2023-01-21T02:53:29.076Z,48.55
2023-01-21T02:56:01.519Z,43.33
2023-01-21T02:58:36.140Z,45.80
2023-01-21T03:01:27.325Z,43.83
2023-01-21T03:04:02.502Z,44.58
2023-01-21T03:06:53.832Z,44.45
2023-01-21T03:09:25.024Z,41.67
2023-01-21T03:12:24.933Z,44.85
2023-01-21T03:15:34.770Z,40.83
2023-01-21T03:18:09.067Z,42.42
2023-01-21T03:20:44.814Z,41.58
2023-01-21T03:23:20.819Z,42.42
2023-01-21T03:25:50.323Z,40.17
2023-01-21T03:28:28.537Z,44.17
2023-01-21T03:31:03.306Z,42.83
2023-01-21T03:33:34.256Z,44.25
2023-01-21T03:36:02.668Z,42.75
2023-01-21T03:38:35.757Z,42.13
2023-01-21T03:41:18.046Z,44.47
2023-01-21T03:43:45.548Z,42.03
2023-01-21T03:46:20.793Z,38.80
2023-01-21T03:48:54.160Z,48.78
2023-01-21T03:51:30.333Z,46.38
2023-01-21T03:53:58.155Z,43.03
2023-01-21T03:56:28.241Z,48.10
2023-01-21T03:58:55.104Z,41.58
2023-01-21T04:01:21.756Z,50.20
2023-01-21T04:03:48.841Z,47.80
2023-01-21T04:06:21.618Z,43.30
2023-01-21T04:08:48.376Z,36.17
2023-01-21T04:11:15.351Z,47.13
2023-01-21T04:13:41.972Z,47.08
2023-01-21T04:16:08.891Z,50.78
2023-01-21T04:18:35.698Z,49.28
2023-01-21T04:21:02.579Z,48.80
2023-01-21T04:23:29.266Z,51.38
2023-01-21T04:25:55.851Z,48.92
2023-01-21T04:28:22.611Z,48.72
2023-01-21T04:30:49.759Z,52.38
2023-01-21T04:33:16.566Z,50.22
2023-01-21T04:35:43.282Z,56.05
2023-01-21T04:38:10.202Z,47.95
2023-01-21T04:40:36.995Z,49.08
2023-01-21T04:43:03.682Z,46.85
2023-01-21T04:45:30.315Z,53.63
2023-01-21T04:47:56.933Z,51.38
2023-01-21T04:50:23.564Z,52.50
2023-01-21T04:52:50.169Z,49.05
2023-01-21T04:55:17.027Z,48.08
2023-01-21T04:57:43.642Z,53.25
2023-01-21T05:00:10.747Z,49.20
2023-01-21T05:02:37.406Z,52.00
2023-01-21T05:05:04.560Z,50.53
2023-01-21T05:07:31.186Z,53.75
2023-01-21T05:09:57.810Z,49.47
2023-01-21T05:12:24.429Z,48.80
2023-01-21T05:14:54.955Z,51.88
2023-01-21T05:17:21.688Z,51.55
2023-01-21T05:19:48.600Z,49.33
2023-01-21T05:22:15.167Z,50.05
2023-01-21T05:24:41.752Z,49.90
2023-01-21T05:27:08.902Z,48.40
2023-01-21T05:29:35.565Z,49.58
2023-01-21T05:32:02.231Z,52.65
2023-01-21T05:34:28.871Z,52.47
2023-01-21T05:36:55.483Z,51.65
2023-01-21T05:39:22.097Z,53.50
2023-01-21T05:41:48.698Z,54.95
2023-01-21T05:44:17.569Z,49.05
2023-01-21T05:46:44.418Z,53.05
2023-01-21T05:49:11.156Z,49.03
2023-01-21T05:51:37.778Z,50.67
2023-01-21T05:54:04.637Z,53.08
2023-01-21T05:56:31.261Z,56.00
2023-01-21T05:58:58.295Z,58.83
2023-01-21T06:01:25.030Z,55.80
2023-01-21T06:03:51.685Z,54.45
2023-01-21T06:06:18.414Z,55.88
2023-01-21T06:08:45.083Z,52.88
2023-01-21T06:11:11.788Z,55.22
2023-01-21T06:13:38.384Z,58.22
2023-01-21T06:16:05.333Z,53.80
2023-01-21T06:18:32.046Z,56.78
2023-01-21T06:21:01.655Z,51.05
2023-01-21T06:23:28.300Z,53.90
2023-01-21T06:25:59.691Z,46.92
2023-01-21T06:28:26.638Z,53.47
2023-01-21T06:30:53.467Z,50.38
2023-01-21T06:33:20.172Z,52.03
2023-01-21T06:35:47.386Z,51.35
2023-01-21T06:38:14.432Z,50.42
2023-01-21T06:40:41.319Z,48.53
2023-01-21T06:43:08.123Z,44.95
2023-01-21T06:45:34.713Z,45.70
2023-01-21T06:48:01.479Z,48.83
2023-01-21T06:50:28.136Z,49.35
2023-01-21T06:52:54.766Z,43.13
2023-01-21T06:55:21.497Z,45.85
2023-01-21T06:57:48.080Z,44.95
2023-01-21T07:00:15.397Z,45.00
2023-01-21T07:02:42.206Z,45.92
2023-01-21T07:05:09.024Z,44.47
2023-01-21T07:07:35.915Z,44.58
2023-01-21T07:10:02.914Z,48.65
2023-01-21T07:12:29.626Z,42.60
2023-01-21T07:14:56.331Z,43.83
2023-01-21T07:17:23.155Z,45.30
2023-01-21T07:19:49.886Z,45.78
2023-01-21T07:22:16.532Z,47.47
2023-01-21T07:24:43.115Z,44.20
2023-01-21T07:27:09.980Z,46.70
2023-01-21T07:29:36.566Z,48.67
2023-01-21T07:32:04.165Z,43.90
2023-01-21T07:34:30.809Z,42.45
2023-01-21T07:36:57.431Z,44.20
2023-01-21T07:39:24.021Z,44.90
2023-01-21T07:41:50.626Z,47.55
2023-01-21T07:44:17.193Z,44.22
2023-01-21T07:46:43.864Z,41.20
2023-01-21T07:49:12.850Z,46.22
2023-01-21T07:51:39.451Z,48.10
2023-01-21T07:54:06.033Z,45.42
2023-01-21T07:56:32.637Z,45.53
2023-01-21T07:58:59.213Z,45.17
2023-01-21T08:01:30.791Z,45.72
2023-01-21T08:03:58.568Z,47.80
2023-01-21T08:06:25.768Z,41.92
2023-01-21T08:08:52.781Z,48.80
2023-01-21T08:11:19.531Z,44.00
2023-01-21T08:13:46.213Z,46.35
2023-01-21T08:16:13.612Z,43.95
2023-01-21T08:18:40.532Z,45.05
2023-01-21T08:21:07.150Z,42.15
2023-01-21T08:23:34.564Z,43.38
2023-01-21T08:26:06.510Z,45.20
2023-01-21T08:28:33.732Z,43.05
2023-01-21T08:31:05.839Z,44.78
2023-01-21T08:33:33.069Z,41.00
2023-01-21T08:36:04.294Z,47.45
2023-01-21T08:38:30.925Z,47.45
2023-01-21T08:40:58.297Z,45.67
2023-01-21T08:43:26.082Z,43.15
2023-01-21T08:45:56.809Z,41.00
2023-01-21T08:48:23.955Z,40.97
2023-01-21T08:50:50.626Z,42.45
2023-01-21T08:53:17.231Z,45.55
2023-01-21T08:55:44.114Z,41.80
2023-01-21T08:58:10.746Z,43.42
2023-01-21T09:00:37.397Z,44.92
2023-01-21T09:03:04.528Z,46.78
2023-01-21T09:05:31.135Z,45.75
2023-01-21T09:07:58.336Z,40.45
2023-01-21T09:10:43.728Z,42.00
2023-01-21T09:13:10.700Z,44.88
2023-01-21T09:15:41.886Z,47.63
2023-01-21T09:18:08.790Z,45.13
2023-01-21T09:20:36.052Z,41.28
2023-01-21T09:23:02.817Z,43.72
2023-01-21T09:25:29.477Z,45.53
2023-01-21T09:27:56.062Z,43.58
2023-01-21T09:30:22.733Z,42.15
2023-01-21T09:32:49.401Z,45.00
2023-01-21T09:35:16.313Z,40.17
2023-01-21T09:37:42.983Z,39.53
2023-01-21T09:40:16.099Z,51.10
2023-01-21T09:42:43.084Z,43.78
2023-01-21T09:45:14.615Z,40.92
2023-01-21T09:47:43.028Z,42.70
2023-01-21T09:50:22.054Z,40.75
2023-01-21T09:52:54.817Z,41.38
2023-01-21T09:55:28.272Z,37.43
2023-01-21T09:57:57.616Z,39.88
2023-01-21T10:00:53.382Z,41.60
2023-01-21T10:04:26.295Z,42.67
2023-01-21T10:07:14.330Z,41.78
2023-01-21T10:09:47.435Z,40.00
2023-01-21T10:12:19.195Z,38.38
2023-01-21T10:14:56.342Z,43.83
2023-01-21T10:17:29.213Z,39.53
2023-01-21T10:20:02.484Z,46.42
2023-01-21T10:22:29.613Z,40.65
2023-01-21T10:25:15.877Z,37.60
2023-01-21T10:27:43.241Z,40.72
2023-01-21T10:30:21.370Z,41.10
2023-01-21T10:32:50.884Z,42.85
2023-01-21T10:35:19.072Z,41.75
2023-01-21T10:37:52.241Z,42.67
2023-01-21T10:40:42.752Z,44.42
2023-01-21T10:43:09.806Z,38.40
2023-01-21T10:45:57.160Z,39.60
2023-01-21T10:48:32.812Z,43.15
2023-01-21T10:51:05.869Z,38.55
2023-01-21T10:53:40.438Z,27.65
2023-01-21T10:56:12.672Z,38.40
2023-01-21T10:58:45.354Z,34.72
2023-01-21T11:01:33.066Z,36.95
2023-01-21T11:04:01.186Z,36.53
2023-01-21T11:06:32.250Z,35.83
2023-01-21T11:09:02.710Z,40.53
2023-01-21T11:11:34.577Z,39.30
2023-01-21T11:14:01.869Z,37.42
2023-01-21T11:16:34.732Z,36.08
2023-01-21T11:19:02.815Z,36.90
2023-01-21T11:21:29.865Z,36.38
2023-01-21T11:24:01.160Z,36.55
2023-01-21T11:26:29.466Z,37.60
2023-01-21T11:29:16.789Z,35.28
2023-01-21T11:32:02.617Z,36.22
2023-01-21T11:34:29.850Z,35.72
2023-01-21T11:36:58.019Z,34.47
2023-01-21T11:39:29.852Z,34.70
2023-01-21T11:42:06.614Z,37.20
2023-01-21T11:44:33.929Z,37.10
2023-01-21T11:47:00.673Z,35.65
2023-01-21T11:49:32.462Z,34.38
2023-01-21T11:52:20.242Z,34.40
2023-01-21T11:54:48.217Z,34.47
2023-01-21T11:57:24.291Z,35.28
2023-01-21T11:59:53.221Z,38.08
2023-01-21T12:02:33.508Z,35.63
2023-01-21T12:05:24.614Z,37.13
2023-01-21T12:07:52.417Z,34.08
2023-01-21T12:10:21.919Z,34.17
2023-01-21T12:13:17.785Z,37.67
2023-01-21T12:16:03.779Z,34.55
2023-01-21T12:18:42.552Z,37.63
2023-01-21T12:21:26.464Z,32.35
2023-01-21T12:26:47.857Z,29.67
2023-01-21T12:29:33.695Z,30.70
2023-01-21T12:32:19.047Z,34.50
2023-01-21T12:35:00.742Z,38.45
2023-01-21T12:37:33.190Z,38.55
2023-01-21T12:40:03.214Z,35.80
2023-01-21T12:42:37.491Z,32.10
2023-01-21T12:45:14.002Z,29.98
2023-01-21T12:47:54.084Z,32.42
2023-01-21T12:50:28.539Z,35.70
2023-01-21T12:53:10.185Z,38.72
2023-01-21T12:55:41.356Z,32.55
2023-01-21T12:58:20.920Z,35.15
2023-01-21T13:00:50.822Z,36.13
2023-01-21T13:03:29.616Z,30.85
2023-01-21T13:06:07.435Z,33.63
2023-01-21T13:08:46.763Z,31.73
2023-01-21T13:11:35.915Z,33.45
2023-01-21T13:14:08.660Z,32.08
2023-01-21T13:16:39.232Z,30.73
2023-01-21T13:19:05.996Z,28.73
2023-01-21T13:21:54.341Z,29.85
2023-01-21T13:24:43.227Z,31.30
2023-01-21T13:27:44.168Z,30.63
2023-01-21T13:30:52.446Z,30.10
2023-01-21T13:33:38.077Z,32.15
2023-01-21T13:36:16.302Z,30.60
2023-01-21T13:39:08.893Z,30.65
2023-01-21T13:41:52.084Z,29.23
2023-01-21T13:44:33.714Z,30.08
2023-01-21T13:47:29.740Z,27.85
2023-01-21T13:50:32.303Z,29.80
2023-01-21T13:53:30.037Z,29.17
2023-01-21T13:55:56.576Z,30.73
2023-01-21T13:58:44.285Z,29.73
2023-01-21T14:01:34.495Z,31.27
2023-01-21T14:04:09.962Z,29.75
2023-01-21T14:06:49.342Z,30.15
2023-01-21T14:09:38.708Z,33.65
2023-01-21T14:12:16.140Z,31.70
2023-01-21T14:15:01.311Z,51.67
2023-01-21T14:17:39.349Z,36.35
2023-01-21T14:20:19.259Z,33.15
2023-01-21T14:22:54.943Z,33.20
2023-01-21T14:25:49.635Z,30.50
2023-01-21T14:28:22.403Z,31.10
2023-01-21T14:31:24.651Z,23.43
2023-01-21T14:34:16.610Z,30.58
2023-01-21T14:37:01.438Z,37.38
2023-01-21T14:39:31.480Z,45.47
2023-01-21T14:42:09.084Z,33.53
2023-01-21T14:44:45.098Z,32.00
2023-01-21T14:47:14.613Z,35.70
2023-01-21T14:49:42.872Z,30.95
2023-01-21T14:52:14.440Z,32.92
2023-01-21T14:54:43.425Z,35.10
2023-01-21T14:57:28.683Z,32.67
2023-01-21T15:00:02.712Z,34.20
2023-01-21T15:02:41.301Z,30.92
2023-01-21T15:05:09.361Z,32.83
2023-01-21T15:07:39.711Z,30.15
2023-01-21T15:10:11.043Z,30.20
2023-01-21T15:12:39.934Z,31.88
2023-01-21T15:15:26.385Z,30.50
2023-01-21T15:17:57.689Z,29.50
2023-01-21T15:20:43.244Z,29.45
2023-01-21T15:23:22.357Z,30.70
2023-01-21T15:26:02.913Z,27.50
2023-01-21T15:28:49.526Z,29.40
2023-01-21T15:31:19.615Z,30.75
2023-01-21T15:33:48.681Z,31.77
2023-01-21T15:36:24.169Z,28.77
2023-01-21T15:38:53.471Z,28.00
2023-01-21T15:41:51.700Z,29.83
2023-01-21T15:44:42.672Z,31.73
2023-01-21T15:47:51.928Z,29.67
2023-01-21T15:50:37.579Z,28.30
2023-01-21T15:53:31.745Z,29.15
2023-01-21T15:58:41.261Z,27.27
2023-01-21T16:01:29.290Z,27.63
2023-01-21T16:04:11.433Z,28.52
2023-01-21T16:06:38.439Z,28.10
2023-01-21T16:09:06.478Z,26.08
2023-01-21T16:11:42.284Z,27.90
2023-01-21T16:14:27.950Z,28.38
2023-01-21T16:16:54.955Z,32.70
2023-01-21T16:19:24.337Z,28.55
2023-01-21T16:21:53.851Z,28.50
2023-01-21T16:24:24.610Z,25.05
2023-01-21T16:26:51.687Z,27.55
2023-01-21T16:29:18.747Z,26.05
2023-01-21T16:31:46.952Z,24.48
2023-01-21T16:34:14.199Z,24.67
2023-01-21T16:36:41.434Z,34.78
2023-01-21T16:39:09.646Z,28.40
2023-01-21T16:41:37.359Z,26.52
2023-01-21T16:44:05.459Z,24.83
2023-01-21T16:46:38.224Z,26.35
2023-01-21T16:49:07.411Z,29.47
2023-01-21T16:51:37.753Z,24.90
2023-01-21T16:54:20.132Z,25.83
2023-01-21T16:56:51.164Z,27.95
2023-01-21T16:59:41.539Z,26.70
2023-01-21T17:02:20.282Z,26.90
2023-01-21T17:04:47.511Z,27.33
2023-01-21T17:07:15.639Z,29.70
2023-01-21T17:09:43.379Z,25.60
2023-01-21T17:12:20.235Z,30.02
2023-01-21T17:14:46.905Z,28.15
2023-01-21T17:17:21.785Z,26.55
2023-01-21T17:19:50.740Z,27.40
2023-01-21T17:22:23.087Z,27.65
2023-01-21T17:25:07.486Z,26.20
2023-01-21T17:27:37.703Z,28.13
2023-01-21T17:30:25.180Z,30.15
2023-01-21T17:32:57.239Z,28.75
2023-01-21T17:35:26.768Z,28.15
2023-01-21T17:37:58.172Z,27.77
2023-01-21T17:40:27.484Z,26.45
2023-01-21T17:42:55.071Z,26.95
2023-01-21T17:45:36.706Z,26.17
2023-01-21T17:48:10.180Z,27.27
2023-01-21T17:50:44.040Z,28.83
2023-01-21T17:53:27.623Z,25.83
2023-01-21T17:56:03.596Z,29.23
2023-01-21T17:58:36.075Z,27.65
2023-01-21T18:01:04.448Z,28.73
2023-01-21T18:03:31.090Z,28.10
2023-01-21T18:05:58.090Z,38.42
2023-01-21T18:08:24.963Z,36.00
2023-01-21T18:10:51.720Z,35.05
2023-01-21T18:13:20.049Z,32.08
2023-01-21T18:15:51.298Z,29.60
2023-01-21T18:18:25.329Z,29.65
2023-01-21T18:20:52.302Z,27.02
2023-01-21T18:23:19.746Z,34.90
2023-01-21T18:25:52.409Z,32.83
2023-01-21T18:28:22.139Z,33.00
2023-01-21T18:30:50.252Z,35.95
2023-01-21T18:33:17.560Z,31.75
2023-01-21T18:35:47.127Z,28.55
2023-01-21T18:38:19.183Z,41.15
2023-01-21T18:40:46.180Z,28.20
2023-01-21T18:43:12.779Z,31.73
2023-01-21T18:45:39.894Z,31.77
2023-01-21T18:48:12.571Z,33.97
2023-01-21T18:50:39.249Z,31.77
2023-01-21T18:53:06.099Z,35.97
2023-01-21T18:55:32.829Z,32.22
2023-01-21T18:57:59.550Z,39.97
2023-01-21T19:00:29.781Z,35.53
2023-01-21T19:02:57.715Z,30.67
2023-01-21T19:05:33.902Z,35.08
2023-01-21T19:08:01.754Z,31.83
2023-01-21T19:10:28.767Z,28.77
2023-01-21T19:12:55.411Z,27.95
2023-01-21T19:15:24.855Z,31.35
2023-01-21T19:17:52.430Z,34.55
2023-01-21T19:20:28.554Z,31.10
2023-01-21T19:22:56.336Z,31.58
2023-01-21T19:25:25.945Z,30.65
2023-01-21T19:27:55.676Z,31.55
2023-01-21T19:30:31.070Z,29.52
2023-01-21T19:33:00.567Z,30.13
2023-01-21T19:35:36.429Z,31.60
2023-01-21T19:38:09.843Z,33.17
2023-01-21T19:40:36.984Z,30.25
2023-01-21T19:43:03.634Z,31.50
2023-01-21T19:45:30.531Z,32.13
2023-01-21T19:47:57.162Z,28.73
2023-01-21T19:50:26.564Z,31.05
2023-01-21T19:52:54.662Z,30.92
2023-01-21T19:55:25.557Z,29.67
2023-01-21T19:58:03.655Z,30.23
2023-01-21T20:00:33.044Z,31.25
2023-01-21T20:03:00.010Z,32.17
2023-01-21T20:05:33.666Z,32.67
2023-01-21T20:10:29.614Z,32.17
2023-01-21T20:12:57.109Z,32.95
2023-01-21T20:15:34.196Z,30.75
2023-01-21T20:18:02.931Z,32.80
2023-01-21T20:20:31.439Z,29.90
2023-01-21T20:23:01.404Z,31.48
2023-01-21T20:25:37.133Z,30.15
2023-01-21T20:28:14.352Z,33.38
2023-01-21T20:30:41.020Z,32.95
2023-01-21T20:33:14.550Z,32.13
2023-01-21T20:35:41.204Z,28.77
2023-01-21T20:38:15.407Z,31.45
2023-01-21T20:40:42.364Z,29.90
2023-01-21T20:43:10.222Z,30.05
2023-01-21T20:45:46.773Z,34.30
2023-01-21T20:48:25.165Z,30.83
2023-01-21T20:50:52.469Z,33.65
2023-01-21T20:53:19.424Z,37.67
2023-01-21T20:55:47.943Z,30.33
2023-01-21T20:58:15.630Z,31.27
2023-01-21T21:00:45.171Z,32.05
2023-01-21T21:03:14.190Z,36.42
2023-01-21T21:05:40.890Z,33.63
2023-01-21T21:08:20.681Z,34.80
2023-01-21T21:10:50.632Z,31.65
2023-01-21T21:13:17.719Z,33.67
2023-01-21T21:15:46.672Z,29.90
2023-01-21T21:18:14.377Z,34.35
2023-01-21T21:20:41.852Z,31.83
2023-01-21T21:23:13.072Z,34.70
2023-01-21T21:25:46.807Z,29.55
2023-01-21T21:28:14.741Z,32.38
2023-01-21T21:30:41.871Z,31.20
2023-01-21T21:33:12.837Z,32.30
2023-01-21T21:35:44.204Z,34.90
2023-01-21T21:38:18.169Z,32.70
2023-01-21T21:40:46.655Z,29.88
2023-01-21T21:43:34.985Z,29.77
2023-01-21T21:46:31.258Z,30.55
2023-01-21T21:48:58.298Z,36.45
2023-01-21T21:51:25.453Z,30.73
2023-01-21T21:53:52.706Z,30.73
2023-01-21T21:56:21.173Z,32.22
2023-01-21T21:58:48.734Z,32.72
2023-01-21T22:01:20.506Z,34.42
2023-01-21T22:03:47.989Z,33.88
2023-01-21T22:06:15.362Z,32.55
2023-01-21T22:08:43.365Z,33.38
2023-01-21T22:11:13.600Z,31.27
2023-01-21T22:13:43.284Z,35.28
2023-01-21T22:16:14.829Z,34.22
2023-01-21T22:18:41.889Z,32.70
2023-01-21T22:21:13.308Z,36.28
2023-01-21T22:23:40.590Z,29.63
2023-01-21T22:26:09.097Z,33.33
2023-01-21T22:28:36.572Z,33.03
2023-01-21T22:31:08.094Z,34.70
2023-01-21T22:33:35.829Z,34.72
2023-01-21T22:36:03.898Z,33.40
2023-01-21T22:38:32.665Z,32.25
2023-01-21T22:40:59.730Z,34.22
2023-01-21T22:43:26.915Z,31.00
2023-01-21T22:45:55.348Z,30.67
2023-01-21T22:48:22.864Z,32.83
2023-01-21T22:50:54.246Z,33.95
2023-01-21T22:53:21.436Z,34.10
2023-01-21T22:55:55.515Z,33.83
2023-01-21T22:58:22.827Z,34.45
2023-01-21T23:00:50.209Z,33.92
2023-01-21T23:03:17.302Z,34.25
2023-01-21T23:05:44.611Z,37.35
2023-01-21T23:08:12.168Z,35.95
2023-01-21T23:10:42.368Z,36.33
2023-01-21T23:13:13.874Z,35.70
2023-01-21T23:15:44.659Z,34.33
2023-01-21T23:18:12.847Z,32.25
2023-01-21T23:20:41.862Z,35.55
2023-01-21T23:23:09.903Z,35.25
2023-01-21T23:25:40.822Z,34.33
2023-01-21T23:28:07.956Z,36.42
2023-01-21T23:30:35.124Z,35.70
2023-01-21T23:33:02.192Z,37.33
2023-01-21T23:35:29.446Z,33.70
2023-01-21T23:37:56.521Z,32.50
2023-01-21T23:40:23.538Z,35.55
2023-01-21T23:42:51.081Z,32.25
2023-01-21T23:45:18.148Z,30.88
2023-01-21T23:47:47.580Z,32.28
2023-01-21T23:50:14.872Z,33.53
2023-01-21T23:52:42.033Z,30.45
2023-01-21T23:55:10.056Z,35.60
2023-01-21T23:57:37.133Z,32.38
